Terminal Aerodrome Forecast
Issued by NWS

Home | Current Version | Previous Version | Text Only | Print | Product List | Glossary On
Versions: 1 2 3 4 5 6 7 8 9 10 11 12 13 14 15 16 17 18
864
FTUS41 KBGM 260540
TAFRME
TAF
KRME 260540Z 2606/2706 00000KT P6SM BKN030
      TEMPO 2609/2612 2SM BR FEW007 SCT030
     FM261200 VRB03KT P6SM BKN040
     FM261700 18007KT P6SM BKN050=

USA.gov is the U.S. government's official web portal to all federal, state and local government web resources and services.